sensor_id;sensor_type;location;lat;lon;timestamp;P1;durP1;ratioP1;P2;durP2;ratioP2
49858;SDS011;35756;52.346;13.622;2023-07-13T00:00:45;5.88;;;3.08;;
49858;SDS011;35756;52.346;13.622;2023-07-13T00:03:11;5.03;;;2.70;;
49858;SDS011;35756;52.346;13.622;2023-07-13T00:05:38;5.07;;;2.88;;
49858;SDS011;35756;52.346;13.622;2023-07-13T00:08:03;5.78;;;3.08;;
49858;SDS011;35756;52.346;13.622;2023-07-13T00:10:29;5.20;;;2.78;;
49858;SDS011;35756;52.346;13.622;2023-07-13T00:12:54;4.07;;;3.17;;
49858;SDS011;35756;52.346;13.622;2023-07-13T00:15:22;5.45;;;3.30;;
49858;SDS011;35756;52.346;13.622;2023-07-13T00:17:54;5.65;;;2.92;;
49858;SDS011;35756;52.346;13.622;2023-07-13T00:20:24;7.10;;;3.70;;
49858;SDS011;35756;52.346;13.622;2023-07-13T00:22:50;5.03;;;2.90;;
49858;SDS011;35756;52.346;13.622;2023-07-13T00:25:18;4.45;;;2.90;;
49858;SDS011;35756;52.346;13.622;2023-07-13T00:27:44;7.25;;;3.40;;
49858;SDS011;35756;52.346;13.622;2023-07-13T00:30:10;4.55;;;3.00;;
49858;SDS011;35756;52.346;13.622;2023-07-13T00:32:36;5.30;;;3.22;;
49858;SDS011;35756;52.346;13.622;2023-07-13T00:35:02;4.35;;;3.00;;
49858;SDS011;35756;52.346;13.622;2023-07-13T00:37:29;6.85;;;3.50;;
49858;SDS011;35756;52.346;13.622;2023-07-13T00:39:54;4.28;;;3.05;;
49858;SDS011;35756;52.346;13.622;2023-07-13T00:42:20;6.45;;;3.15;;
49858;SDS011;35756;52.346;13.622;2023-07-13T00:47:39;4.97;;;3.15;;
49858;SDS011;35756;52.346;13.622;2023-07-13T00:50:06;6.03;;;3.15;;
49858;SDS011;35756;52.346;13.622;2023-07-13T00:52:34;6.18;;;3.28;;
49858;SDS011;35756;52.346;13.622;2023-07-13T00:55:00;5.22;;;3.60;;
49858;SDS011;35756;52.346;13.622;2023-07-13T00:57:26;5.72;;;3.45;;
49858;SDS011;35756;52.346;13.622;2023-07-13T00:59:53;7.15;;;3.53;;
49858;SDS011;35756;52.346;13.622;2023-07-13T01:02:20;4.22;;;3.20;;
49858;SDS011;35756;52.346;13.622;2023-07-13T01:04:46;5.20;;;3.50;;
49858;SDS011;35756;52.346;13.622;2023-07-13T01:07:11;6.35;;;3.80;;
49858;SDS011;35756;52.346;13.622;2023-07-13T01:09:37;4.95;;;3.42;;
49858;SDS011;35756;52.346;13.622;2023-07-13T01:12:03;4.20;;;3.40;;
49858;SDS011;35756;52.346;13.622;2023-07-13T01:14:28;5.25;;;3.65;;
49858;SDS011;35756;52.346;13.622;2023-07-13T01:16:54;4.90;;;3.67;;
49858;SDS011;35756;52.346;13.622;2023-07-13T01:19:28;4.82;;;3.08;;
49858;SDS011;35756;52.346;13.622;2023-07-13T01:22:00;4.63;;;3.47;;
49858;SDS011;35756;52.346;13.622;2023-07-13T01:24:26;5.32;;;3.30;;
49858;SDS011;35756;52.346;13.622;2023-07-13T01:26:51;5.43;;;3.53;;
49858;SDS011;35756;52.346;13.622;2023-07-13T01:29:17;5.00;;;3.58;;
49858;SDS011;35756;52.346;13.622;2023-07-13T01:31:42;5.13;;;3.40;;
49858;SDS011;35756;52.346;13.622;2023-07-13T01:34:09;5.22;;;3.42;;
49858;SDS011;35756;52.346;13.622;2023-07-13T01:36:34;6.18;;;3.55;;
49858;SDS011;35756;52.346;13.622;2023-07-13T01:39:01;6.05;;;3.47;;
49858;SDS011;35756;52.346;13.622;2023-07-13T01:41:26;5.55;;;3.75;;
49858;SDS011;35756;52.346;13.622;2023-07-13T01:43:51;4.93;;;3.20;;
49858;SDS011;35756;52.346;13.622;2023-07-13T01:46:17;5.28;;;3.30;;
49858;SDS011;35756;52.346;13.622;2023-07-13T01:48:42;4.20;;;3.17;;
49858;SDS011;35756;52.346;13.622;2023-07-13T01:51:07;4.55;;;3.90;;
49858;SDS011;35756;52.346;13.622;2023-07-13T01:53:32;6.53;;;3.53;;
49858;SDS011;35756;52.346;13.622;2023-07-13T01:55:58;6.50;;;3.70;;
49858;SDS011;35756;52.346;13.622;2023-07-13T01:58:23;5.55;;;3.30;;
49858;SDS011;35756;52.346;13.622;2023-07-13T02:00:49;7.05;;;3.30;;
49858;SDS011;35756;52.346;13.622;2023-07-13T02:03:14;4.68;;;3.47;;
49858;SDS011;35756;52.346;13.622;2023-07-13T02:05:42;7.03;;;3.90;;
49858;SDS011;35756;52.346;13.622;2023-07-13T02:08:08;6.03;;;3.47;;
49858;SDS011;35756;52.346;13.622;2023-07-13T02:10:33;5.22;;;3.47;;
49858;SDS011;35756;52.346;13.622;2023-07-13T02:12:59;6.40;;;3.50;;
49858;SDS011;35756;52.346;13.622;2023-07-13T02:15:24;5.95;;;3.85;;
49858;SDS011;35756;52.346;13.622;2023-07-13T02:17:49;4.35;;;3.63;;
49858;SDS011;35756;52.346;13.622;2023-07-13T02:20:14;6.13;;;3.53;;
49858;SDS011;35756;52.346;13.622;2023-07-13T02:22:40;6.18;;;3.40;;
49858;SDS011;35756;52.346;13.622;2023-07-13T02:25:05;5.95;;;3.70;;
49858;SDS011;35756;52.346;13.622;2023-07-13T02:27:31;8.88;;;3.63;;
49858;SDS011;35756;52.346;13.622;2023-07-13T02:29:56;6.40;;;4.35;;
49858;SDS011;35756;52.346;13.622;2023-07-13T02:32:22;5.95;;;3.42;;
49858;SDS011;35756;52.346;13.622;2023-07-13T02:34:50;6.25;;;3.75;;
49858;SDS011;35756;52.346;13.622;2023-07-13T02:37:17;7.40;;;3.90;;
49858;SDS011;35756;52.346;13.622;2023-07-13T02:39:42;5.28;;;3.63;;
49858;SDS011;35756;52.346;13.622;2023-07-13T02:42:08;7.70;;;4.03;;
49858;SDS011;35756;52.346;13.622;2023-07-13T02:44:33;5.35;;;3.90;;
49858;SDS011;35756;52.346;13.622;2023-07-13T02:46:58;5.35;;;3.53;;
49858;SDS011;35756;52.346;13.622;2023-07-13T02:49:23;5.88;;;3.92;;
49858;SDS011;35756;52.346;13.622;2023-07-13T02:51:49;4.88;;;3.70;;
49858;SDS011;35756;52.346;13.622;2023-07-13T02:54:14;8.48;;;3.45;;
49858;SDS011;35756;52.346;13.622;2023-07-13T02:56:40;6.03;;;4.05;;
49858;SDS011;35756;52.346;13.622;2023-07-13T02:59:05;6.55;;;3.75;;
49858;SDS011;35756;52.346;13.622;2023-07-13T03:01:30;8.30;;;3.70;;
49858;SDS011;35756;52.346;13.622;2023-07-13T03:03:57;11.18;;;4.03;;
49858;SDS011;35756;52.346;13.622;2023-07-13T03:06:22;8.65;;;3.90;;
49858;SDS011;35756;52.346;13.622;2023-07-13T03:08:49;16.33;;;4.55;;
49858;SDS011;35756;52.346;13.622;2023-07-13T03:11:17;9.18;;;3.58;;
49858;SDS011;35756;52.346;13.622;2023-07-13T03:13:43;9.40;;;4.32;;
49858;SDS011;35756;52.346;13.622;2023-07-13T03:16:09;5.85;;;4.03;;
49858;SDS011;35756;52.346;13.622;2023-07-13T03:18:35;7.35;;;3.92;;
49858;SDS011;35756;52.346;13.622;2023-07-13T03:21:01;5.60;;;3.63;;
49858;SDS011;35756;52.346;13.622;2023-07-13T03:23:26;5.45;;;3.80;;
49858;SDS011;35756;52.346;13.622;2023-07-13T03:26:01;5.47;;;3.80;;
49858;SDS011;35756;52.346;13.622;2023-07-13T03:28:27;8.48;;;3.97;;
49858;SDS011;35756;52.346;13.622;2023-07-13T03:30:58;6.13;;;3.95;;
49858;SDS011;35756;52.346;13.622;2023-07-13T03:33:28;7.47;;;4.05;;
49858;SDS011;35756;52.346;13.622;2023-07-13T03:35:53;7.18;;;3.88;;
49858;SDS011;35756;52.346;13.622;2023-07-13T03:38:18;6.53;;;3.80;;
49858;SDS011;35756;52.346;13.622;2023-07-13T03:40:44;9.40;;;4.28;;
49858;SDS011;35756;52.346;13.622;2023-07-13T03:43:10;8.82;;;4.10;;
49858;SDS011;35756;52.346;13.622;2023-07-13T03:45:37;6.20;;;3.90;;
49858;SDS011;35756;52.346;13.622;2023-07-13T03:48:03;6.20;;;3.70;;
49858;SDS011;35756;52.346;13.622;2023-07-13T03:50:28;6.70;;;4.30;;
49858;SDS011;35756;52.346;13.622;2023-07-13T03:52:54;4.57;;;3.40;;
49858;SDS011;35756;52.346;13.622;2023-07-13T03:55:20;4.55;;;3.60;;
49858;SDS011;35756;52.346;13.622;2023-07-13T03:57:46;5.70;;;3.50;;
49858;SDS011;35756;52.346;13.622;2023-07-13T04:00:11;5.25;;;3.35;;
49858;SDS011;35756;52.346;13.622;2023-07-13T04:02:37;6.25;;;3.53;;
49858;SDS011;35756;52.346;13.622;2023-07-13T04:05:02;5.85;;;3.45;;
49858;SDS011;35756;52.346;13.622;2023-07-13T04:07:28;4.70;;;3.42;;
49858;SDS011;35756;52.346;13.622;2023-07-13T04:09:53;6.82;;;3.97;;
49858;SDS011;35756;52.346;13.622;2023-07-13T04:12:18;6.00;;;3.80;;
49858;SDS011;35756;52.346;13.622;2023-07-13T04:14:43;7.78;;;3.55;;
49858;SDS011;35756;52.346;13.622;2023-07-13T04:17:09;8.07;;;3.85;;
49858;SDS011;35756;52.346;13.622;2023-07-13T04:19:34;6.50;;;3.80;;
49858;SDS011;35756;52.346;13.622;2023-07-13T04:21:59;5.53;;;4.00;;
49858;SDS011;35756;52.346;13.622;2023-07-13T04:24:25;8.07;;;3.92;;
49858;SDS011;35756;52.346;13.622;2023-07-13T04:26:50;6.10;;;3.55;;
49858;SDS011;35756;52.346;13.622;2023-07-13T04:29:16;6.97;;;3.45;;
49858;SDS011;35756;52.346;13.622;2023-07-13T04:31:41;5.22;;;3.80;;
49858;SDS011;35756;52.346;13.622;2023-07-13T04:34:06;4.40;;;3.47;;
49858;SDS011;35756;52.346;13.622;2023-07-13T04:36:32;5.53;;;3.70;;
49858;SDS011;35756;52.346;13.622;2023-07-13T04:38:57;5.53;;;3.30;;
49858;SDS011;35756;52.346;13.622;2023-07-13T04:41:23;7.50;;;3.58;;
49858;SDS011;35756;52.346;13.622;2023-07-13T04:43:48;4.82;;;3.40;;
49858;SDS011;35756;52.346;13.622;2023-07-13T04:46:14;4.88;;;3.67;;
49858;SDS011;35756;52.346;13.622;2023-07-13T04:48:42;4.22;;;3.17;;
49858;SDS011;35756;52.346;13.622;2023-07-13T04:51:07;5.55;;;3.50;;
49858;SDS011;35756;52.346;13.622;2023-07-13T04:53:33;4.78;;;3.13;;
49858;SDS011;35756;52.346;13.622;2023-07-13T04:55:59;8.10;;;3.42;;
49858;SDS011;35756;52.346;13.622;2023-07-13T04:58:24;4.68;;;3.40;;
49858;SDS011;35756;52.346;13.622;2023-07-13T05:00:50;6.20;;;2.92;;
49858;SDS011;35756;52.346;13.622;2023-07-13T05:03:15;5.25;;;3.15;;
49858;SDS011;35756;52.346;13.622;2023-07-13T05:05:40;6.03;;;2.97;;
49858;SDS011;35756;52.346;13.622;2023-07-13T05:08:06;5.43;;;3.13;;
49858;SDS011;35756;52.346;13.622;2023-07-13T05:10:32;5.90;;;3.28;;
49858;SDS011;35756;52.346;13.622;2023-07-13T05:12:57;5.63;;;3.28;;
49858;SDS011;35756;52.346;13.622;2023-07-13T05:15:23;4.88;;;3.30;;
49858;SDS011;35756;52.346;13.622;2023-07-13T05:17:49;5.15;;;3.10;;
49858;SDS011;35756;52.346;13.622;2023-07-13T05:20:14;7.45;;;2.83;;
49858;SDS011;35756;52.346;13.622;2023-07-13T05:22:41;4.07;;;2.80;;
49858;SDS011;35756;52.346;13.622;2023-07-13T05:25:07;6.35;;;2.80;;
49858;SDS011;35756;52.346;13.622;2023-07-13T05:27:33;3.70;;;2.45;;
49858;SDS011;35756;52.346;13.622;2023-07-13T05:29:59;5.25;;;2.80;;
49858;SDS011;35756;52.346;13.622;2023-07-13T05:32:24;5.35;;;2.60;;
49858;SDS011;35756;52.346;13.622;2023-07-13T05:34:50;2.78;;;2.20;;
49858;SDS011;35756;52.346;13.622;2023-07-13T05:37:15;4.82;;;2.72;;
49858;SDS011;35756;52.346;13.622;2023-07-13T05:39:40;3.40;;;1.90;;
49858;SDS011;35756;52.346;13.622;2023-07-13T05:42:05;3.95;;;2.20;;
49858;SDS011;35756;52.346;13.622;2023-07-13T05:44:31;4.45;;;2.35;;
49858;SDS011;35756;52.346;13.622;2023-07-13T05:46:56;4.03;;;2.15;;
49858;SDS011;35756;52.346;13.622;2023-07-13T05:49:22;4.18;;;2.20;;
49858;SDS011;35756;52.346;13.622;2023-07-13T05:51:47;3.78;;;2.00;;
49858;SDS011;35756;52.346;13.622;2023-07-13T05:54:12;4.50;;;2.13;;
49858;SDS011;35756;52.346;13.622;2023-07-13T05:56:38;6.32;;;2.17;;
49858;SDS011;35756;52.346;13.622;2023-07-13T05:59:03;7.50;;;2.42;;
49858;SDS011;35756;52.346;13.622;2023-07-13T06:01:29;4.43;;;2.17;;
49858;SDS011;35756;52.346;13.622;2023-07-13T06:03:54;2.50;;;1.80;;
49858;SDS011;35756;52.346;13.622;2023-07-13T06:06:20;3.45;;;2.05;;
49858;SDS011;35756;52.346;13.622;2023-07-13T06:08:45;3.47;;;1.80;;
49858;SDS011;35756;52.346;13.622;2023-07-13T06:11:14;4.35;;;2.42;;
49858;SDS011;35756;52.346;13.622;2023-07-13T06:13:41;2.83;;;1.80;;
49858;SDS011;35756;52.346;13.622;2023-07-13T06:16:06;3.25;;;1.95;;
49858;SDS011;35756;52.346;13.622;2023-07-13T06:18:33;3.60;;;2.03;;
49858;SDS011;35756;52.346;13.622;2023-07-13T06:20:59;3.22;;;1.90;;
49858;SDS011;35756;52.346;13.622;2023-07-13T06:23:25;2.92;;;1.80;;
49858;SDS011;35756;52.346;13.622;2023-07-13T06:25:53;2.75;;;1.70;;
49858;SDS011;35756;52.346;13.622;2023-07-13T06:28:19;3.58;;;2.17;;
49858;SDS011;35756;52.346;13.622;2023-07-13T06:30:44;1.98;;;1.60;;
49858;SDS011;35756;52.346;13.622;2023-07-13T06:33:09;2.38;;;1.70;;
49858;SDS011;35756;52.346;13.622;2023-07-13T06:35:35;2.38;;;1.63;;
49858;SDS011;35756;52.346;13.622;2023-07-13T06:38:01;4.18;;;1.90;;
49858;SDS011;35756;52.346;13.622;2023-07-13T06:40:27;5.13;;;2.13;;
49858;SDS011;35756;52.346;13.622;2023-07-13T06:42:54;3.17;;;2.20;;
49858;SDS011;35756;52.346;13.622;2023-07-13T06:45:19;2.60;;;1.75;;
49858;SDS011;35756;52.346;13.622;2023-07-13T06:47:44;4.35;;;1.80;;
49858;SDS011;35756;52.346;13.622;2023-07-13T06:50:09;3.60;;;1.77;;
49858;SDS011;35756;52.346;13.622;2023-07-13T06:52:35;3.47;;;1.70;;
49858;SDS011;35756;52.346;13.622;2023-07-13T06:55:00;6.32;;;1.90;;
49858;SDS011;35756;52.346;13.622;2023-07-13T06:57:25;4.63;;;1.80;;
49858;SDS011;35756;52.346;13.622;2023-07-13T06:59:51;4.00;;;1.52;;
49858;SDS011;35756;52.346;13.622;2023-07-13T07:02:16;2.88;;;1.60;;
49858;SDS011;35756;52.346;13.622;2023-07-13T07:04:42;3.60;;;1.80;;
49858;SDS011;35756;52.346;13.622;2023-07-13T07:07:07;5.72;;;1.70;;
49858;SDS011;35756;52.346;13.622;2023-07-13T07:09:32;3.47;;;1.60;;
49858;SDS011;35756;52.346;13.622;2023-07-13T07:11:58;3.53;;;1.95;;
49858;SDS011;35756;52.346;13.622;2023-07-13T07:14:23;3.35;;;1.75;;
49858;SDS011;35756;52.346;13.622;2023-07-13T07:16:49;1.73;;;1.45;;
49858;SDS011;35756;52.346;13.622;2023-07-13T07:19:15;3.00;;;1.85;;
49858;SDS011;35756;52.346;13.622;2023-07-13T07:21:40;2.03;;;1.70;;
49858;SDS011;35756;52.346;13.622;2023-07-13T07:24:06;3.47;;;2.30;;
49858;SDS011;35756;52.346;13.622;2023-07-13T07:26:32;2.63;;;1.73;;
49858;SDS011;35756;52.346;13.622;2023-07-13T07:28:57;2.97;;;1.70;;
49858;SDS011;35756;52.346;13.622;2023-07-13T07:31:23;4.57;;;1.73;;
49858;SDS011;35756;52.346;13.622;2023-07-13T07:33:48;3.85;;;1.70;;
49858;SDS011;35756;52.346;13.622;2023-07-13T07:36:14;3.03;;;1.70;;
49858;SDS011;35756;52.346;13.622;2023-07-13T07:38:41;7.28;;;2.58;;
49858;SDS011;35756;52.346;13.622;2023-07-13T07:41:06;3.08;;;1.80;;
49858;SDS011;35756;52.346;13.622;2023-07-13T07:43:31;4.25;;;1.75;;
49858;SDS011;35756;52.346;13.622;2023-07-13T07:45:57;3.22;;;1.98;;
49858;SDS011;35756;52.346;13.622;2023-07-13T07:48:22;3.05;;;1.80;;
49858;SDS011;35756;52.346;13.622;2023-07-13T07:50:48;3.58;;;1.65;;
49858;SDS011;35756;52.346;13.622;2023-07-13T07:53:13;2.67;;;1.70;;
49858;SDS011;35756;52.346;13.622;2023-07-13T07:55:38;3.45;;;1.58;;
49858;SDS011;35756;52.346;13.622;2023-07-13T07:58:04;2.25;;;1.58;;
49858;SDS011;35756;52.346;13.622;2023-07-13T08:00:30;4.82;;;1.70;;
49858;SDS011;35756;52.346;13.622;2023-07-13T08:02:56;5.43;;;2.00;;
49858;SDS011;35756;52.346;13.622;2023-07-13T08:05:22;1.83;;;1.70;;
49858;SDS011;35756;52.346;13.622;2023-07-13T08:07:47;5.72;;;2.00;;
49858;SDS011;35756;52.346;13.622;2023-07-13T08:10:12;4.60;;;2.20;;
49858;SDS011;35756;52.346;13.622;2023-07-13T08:12:38;3.28;;;2.03;;
49858;SDS011;35756;52.346;13.622;2023-07-13T08:15:04;2.90;;;1.80;;
49858;SDS011;35756;52.346;13.622;2023-07-13T08:17:30;2.70;;;1.88;;
49858;SDS011;35756;52.346;13.622;2023-07-13T08:19:56;2.60;;;1.42;;
49858;SDS011;35756;52.346;13.622;2023-07-13T08:22:21;5.38;;;1.60;;
49858;SDS011;35756;52.346;13.622;2023-07-13T08:24:46;2.90;;;1.73;;
49858;SDS011;35756;52.346;13.622;2023-07-13T08:27:21;4.68;;;1.80;;
49858;SDS011;35756;52.346;13.622;2023-07-13T08:29:49;2.17;;;1.70;;
49858;SDS011;35756;52.346;13.622;2023-07-13T08:32:15;4.57;;;1.70;;
49858;SDS011;35756;52.346;13.622;2023-07-13T08:34:40;3.97;;;2.00;;
49858;SDS011;35756;52.346;13.622;2023-07-13T08:37:06;3.47;;;1.73;;
49858;SDS011;35756;52.346;13.622;2023-07-13T08:39:32;3.00;;;1.58;;
49858;SDS011;35756;52.346;13.622;2023-07-13T08:41:59;2.78;;;1.40;;
49858;SDS011;35756;52.346;13.622;2023-07-13T08:44:29;2.75;;;1.45;;
49858;SDS011;35756;52.346;13.622;2023-07-13T08:47:04;2.70;;;1.60;;
49858;SDS011;35756;52.346;13.622;2023-07-13T08:49:30;5.15;;;1.42;;
49858;SDS011;35756;52.346;13.622;2023-07-13T08:52:08;3.55;;;1.98;;
49858;SDS011;35756;52.346;13.622;2023-07-13T08:54:41;3.08;;;1.60;;
49858;SDS011;35756;52.346;13.622;2023-07-13T08:57:11;4.50;;;1.80;;
49858;SDS011;35756;52.346;13.622;2023-07-13T08:59:39;3.03;;;1.80;;
49858;SDS011;35756;52.346;13.622;2023-07-13T09:04:54;3.47;;;1.85;;
49858;SDS011;35756;52.346;13.622;2023-07-13T09:12:54;2.40;;;1.50;;
49858;SDS011;35756;52.346;13.622;2023-07-13T09:15:26;4.00;;;1.38;;
49858;SDS011;35756;52.346;13.622;2023-07-13T09:17:56;3.13;;;1.73;;
49858;SDS011;35756;52.346;13.622;2023-07-13T09:20:26;3.83;;;1.65;;
49858;SDS011;35756;52.346;13.622;2023-07-13T09:22:59;5.05;;;1.55;;
49858;SDS011;35756;52.346;13.622;2023-07-13T09:27:53;5.60;;;2.00;;
49858;SDS011;35756;52.346;13.622;2023-07-13T09:30:30;7.50;;;2.00;;
49858;SDS011;35756;52.346;13.622;2023-07-13T09:32:59;2.67;;;1.83;;
49858;SDS011;35756;52.346;13.622;2023-07-13T09:35:25;6.20;;;1.88;;
49858;SDS011;35756;52.346;13.622;2023-07-13T09:37:58;2.53;;;1.67;;
49858;SDS011;35756;52.346;13.622;2023-07-13T09:40:37;3.03;;;1.75;;
49858;SDS011;35756;52.346;13.622;2023-07-13T09:43:08;6.55;;;1.98;;
49858;SDS011;35756;52.346;13.622;2023-07-13T09:45:36;4.57;;;2.17;;
49858;SDS011;35756;52.346;13.622;2023-07-13T09:48:06;4.70;;;2.00;;
49858;SDS011;35756;52.346;13.622;2023-07-13T09:50:35;3.50;;;2.20;;
49858;SDS011;35756;52.346;13.622;2023-07-13T09:53:00;4.07;;;2.10;;
49858;SDS011;35756;52.346;13.622;2023-07-13T09:55:34;3.10;;;2.17;;
49858;SDS011;35756;52.346;13.622;2023-07-13T09:58:12;4.07;;;2.13;;
49858;SDS011;35756;52.346;13.622;2023-07-13T10:00:42;2.58;;;1.90;;
49858;SDS011;35756;52.346;13.622;2023-07-13T10:03:19;3.53;;;2.22;;
49858;SDS011;35756;52.346;13.622;2023-07-13T10:05:47;6.63;;;2.05;;
49858;SDS011;35756;52.346;13.622;2023-07-13T10:08:26;4.35;;;2.20;;
49858;SDS011;35756;52.346;13.622;2023-07-13T10:10:54;6.22;;;2.42;;
49858;SDS011;35756;52.346;13.622;2023-07-13T10:13:31;4.70;;;2.00;;
49858;SDS011;35756;52.346;13.622;2023-07-13T10:16:02;5.43;;;2.10;;
49858;SDS011;35756;52.346;13.622;2023-07-13T10:18:34;4.47;;;2.20;;
49858;SDS011;35756;52.346;13.622;2023-07-13T10:21:39;5.20;;;2.10;;
49858;SDS011;35756;52.346;13.622;2023-07-13T10:24:21;3.03;;;2.15;;
49858;SDS011;35756;52.346;13.622;2023-07-13T10:26:48;4.47;;;2.38;;
49858;SDS011;35756;52.346;13.622;2023-07-13T10:29:18;3.38;;;2.00;;
49858;SDS011;35756;52.346;13.622;2023-07-13T10:31:45;4.15;;;2.20;;
49858;SDS011;35756;52.346;13.622;2023-07-13T10:34:12;4.55;;;2.10;;
49858;SDS011;35756;52.346;13.622;2023-07-13T10:36:44;4.57;;;2.20;;
49858;SDS011;35756;52.346;13.622;2023-07-13T10:39:22;2.88;;;1.95;;
49858;SDS011;35756;52.346;13.622;2023-07-13T10:41:54;2.65;;;2.22;;
49858;SDS011;35756;52.346;13.622;2023-07-13T10:44:24;4.70;;;2.60;;
49858;SDS011;35756;52.346;13.622;2023-07-13T10:46:54;4.28;;;1.95;;
49858;SDS011;35756;52.346;13.622;2023-07-13T10:49:21;4.85;;;2.05;;
49858;SDS011;35756;52.346;13.622;2023-07-13T10:51:47;3.92;;;2.20;;
49858;SDS011;35756;52.346;13.622;2023-07-13T10:57:12;3.28;;;2.35;;
49858;SDS011;35756;52.346;13.622;2023-07-13T10:59:43;6.85;;;2.10;;
49858;SDS011;35756;52.346;13.622;2023-07-13T11:02:30;4.22;;;2.10;;
49858;SDS011;35756;52.346;13.622;2023-07-13T11:04:56;3.38;;;2.20;;
49858;SDS011;35756;52.346;13.622;2023-07-13T11:07:26;3.03;;;1.88;;
49858;SDS011;35756;52.346;13.622;2023-07-13T11:09:54;4.00;;;2.30;;
49858;SDS011;35756;52.346;13.622;2023-07-13T11:20:09;3.35;;;2.30;;
49858;SDS011;35756;52.346;13.622;2023-07-13T11:22:42;5.30;;;2.17;;
49858;SDS011;35756;52.346;13.622;2023-07-13T11:25:42;4.22;;;2.58;;
49858;SDS011;35756;52.346;13.622;2023-07-13T11:35:59;5.28;;;2.20;;
49858;SDS011;35756;52.346;13.622;2023-07-13T11:38:41;5.18;;;2.30;;
49858;SDS011;35756;52.346;13.622;2023-07-13T11:43:44;3.45;;;2.20;;
49858;SDS011;35756;52.346;13.622;2023-07-13T11:46:13;3.25;;;2.15;;
49858;SDS011;35756;52.346;13.622;2023-07-13T11:48:48;5.13;;;2.45;;
49858;SDS011;35756;52.346;13.622;2023-07-13T11:51:23;3.38;;;2.42;;
49858;SDS011;35756;52.346;13.622;2023-07-13T11:53:53;2.95;;;2.05;;
49858;SDS011;35756;52.346;13.622;2023-07-13T11:56:20;3.97;;;2.38;;
49858;SDS011;35756;52.346;13.622;2023-07-13T11:58:50;6.57;;;2.67;;
49858;SDS011;35756;52.346;13.622;2023-07-13T12:01:19;3.63;;;2.38;;
49858;SDS011;35756;52.346;13.622;2023-07-13T12:03:46;5.28;;;2.65;;
49858;SDS011;35756;52.346;13.622;2023-07-13T12:06:21;3.53;;;2.55;;
49858;SDS011;35756;52.346;13.622;2023-07-13T12:08:57;4.28;;;2.50;;
49858;SDS011;35756;52.346;13.622;2023-07-13T12:11:24;5.35;;;2.33;;
49858;SDS011;35756;52.346;13.622;2023-07-13T12:13:49;2.92;;;2.30;;
49858;SDS011;35756;52.346;13.622;2023-07-13T12:16:16;3.75;;;2.53;;
49858;SDS011;35756;52.346;13.622;2023-07-13T12:18:47;5.15;;;2.50;;
49858;SDS011;35756;52.346;13.622;2023-07-13T12:21:13;4.78;;;2.60;;
49858;SDS011;35756;52.346;13.622;2023-07-13T12:23:43;3.58;;;2.28;;
49858;SDS011;35756;52.346;13.622;2023-07-13T12:26:09;4.45;;;2.55;;
49858;SDS011;35756;52.346;13.622;2023-07-13T12:28:36;3.50;;;2.35;;
49858;SDS011;35756;52.346;13.622;2023-07-13T12:31:04;4.35;;;2.70;;
49858;SDS011;35756;52.346;13.622;2023-07-13T12:33:32;5.88;;;2.45;;
49858;SDS011;35756;52.346;13.622;2023-07-13T12:36:01;5.50;;;2.40;;
49858;SDS011;35756;52.346;13.622;2023-07-13T12:38:29;3.15;;;2.30;;
49858;SDS011;35756;52.346;13.622;2023-07-13T12:40:55;4.15;;;2.22;;
49858;SDS011;35756;52.346;13.622;2023-07-13T12:43:21;4.30;;;2.13;;
49858;SDS011;35756;52.346;13.622;2023-07-13T12:45:57;5.30;;;2.40;;
49858;SDS011;35756;52.346;13.622;2023-07-13T12:48:25;3.80;;;2.33;;
49858;SDS011;35756;52.346;13.622;2023-07-13T12:50:50;3.22;;;2.10;;
49858;SDS011;35756;52.346;13.622;2023-07-13T12:53:38;3.50;;;2.28;;
49858;SDS011;35756;52.346;13.622;2023-07-13T12:56:05;4.53;;;2.25;;
49858;SDS011;35756;52.346;13.622;2023-07-13T12:58:37;4.78;;;2.10;;
49858;SDS011;35756;52.346;13.622;2023-07-13T13:01:05;4.30;;;2.25;;
49858;SDS011;35756;52.346;13.622;2023-07-13T13:03:32;5.68;;;2.80;;
49858;SDS011;35756;52.346;13.622;2023-07-13T13:08:43;4.20;;;2.03;;
49858;SDS011;35756;52.346;13.622;2023-07-13T13:11:10;2.78;;;2.22;;
49858;SDS011;35756;52.346;13.622;2023-07-13T13:13:35;4.45;;;2.10;;
49858;SDS011;35756;52.346;13.622;2023-07-13T13:16:17;3.83;;;2.35;;
49858;SDS011;35756;52.346;13.622;2023-07-13T13:18:45;3.10;;;2.00;;
49858;SDS011;35756;52.346;13.622;2023-07-13T13:21:11;4.10;;;2.20;;
49858;SDS011;35756;52.346;13.622;2023-07-13T13:23:36;3.40;;;1.77;;
49858;SDS011;35756;52.346;13.622;2023-07-13T13:26:01;4.45;;;2.10;;
49858;SDS011;35756;52.346;13.622;2023-07-13T13:28:27;5.43;;;2.10;;
49858;SDS011;35756;52.346;13.622;2023-07-13T13:30:52;4.97;;;2.05;;
49858;SDS011;35756;52.346;13.622;2023-07-13T13:33:18;3.63;;;1.90;;
49858;SDS011;35756;52.346;13.622;2023-07-13T13:35:45;3.60;;;1.75;;
49858;SDS011;35756;52.346;13.622;2023-07-13T13:38:11;2.88;;;1.80;;
49858;SDS011;35756;52.346;13.622;2023-07-13T13:40:39;5.85;;;1.90;;
49858;SDS011;35756;52.346;13.622;2023-07-13T13:43:08;4.57;;;2.20;;
49858;SDS011;35756;52.346;13.622;2023-07-13T13:45:40;2.70;;;1.80;;
49858;SDS011;35756;52.346;13.622;2023-07-13T13:48:05;2.28;;;1.80;;
49858;SDS011;35756;52.346;13.622;2023-07-13T13:50:32;3.25;;;1.90;;
49858;SDS011;35756;52.346;13.622;2023-07-13T13:52:57;3.47;;;1.58;;
49858;SDS011;35756;52.346;13.622;2023-07-13T13:55:23;2.05;;;1.60;;
49858;SDS011;35756;52.346;13.622;2023-07-13T13:57:49;2.85;;;1.73;;
49858;SDS011;35756;52.346;13.622;2023-07-13T14:00:15;3.33;;;1.65;;
49858;SDS011;35756;52.346;13.622;2023-07-13T14:02:42;3.17;;;1.67;;
49858;SDS011;35756;52.346;13.622;2023-07-13T14:05:12;6.88;;;1.77;;
49858;SDS011;35756;52.346;13.622;2023-07-13T14:07:38;4.32;;;1.88;;
49858;SDS011;35756;52.346;13.622;2023-07-13T14:10:14;2.00;;;1.40;;
49858;SDS011;35756;52.346;13.622;2023-07-13T14:12:42;2.78;;;1.77;;
49858;SDS011;35756;52.346;13.622;2023-07-13T14:15:17;2.67;;;1.80;;
49858;SDS011;35756;52.346;13.622;2023-07-13T14:17:45;3.65;;;1.65;;
49858;SDS011;35756;52.346;13.622;2023-07-13T14:20:11;3.40;;;1.60;;
49858;SDS011;35756;52.346;13.622;2023-07-13T14:22:37;3.05;;;1.73;;
49858;SDS011;35756;52.346;13.622;2023-07-13T14:25:03;3.65;;;1.58;;
49858;SDS011;35756;52.346;13.622;2023-07-13T14:27:28;5.60;;;2.03;;
49858;SDS011;35756;52.346;13.622;2023-07-13T14:29:53;3.67;;;2.47;;
49858;SDS011;35756;52.346;13.622;2023-07-13T14:32:19;2.45;;;1.40;;
49858;SDS011;35756;52.346;13.622;2023-07-13T14:34:44;2.42;;;1.48;;
49858;SDS011;35756;52.346;13.622;2023-07-13T14:37:13;2.40;;;1.42;;
49858;SDS011;35756;52.346;13.622;2023-07-13T14:39:39;2.33;;;1.42;;
49858;SDS011;35756;52.346;13.622;2023-07-13T14:42:07;2.28;;;1.42;;
49858;SDS011;35756;52.346;13.622;2023-07-13T14:44:33;4.07;;;1.90;;
49858;SDS011;35756;52.346;13.622;2023-07-13T14:46:59;4.13;;;2.00;;
49858;SDS011;35756;52.346;13.622;2023-07-13T14:49:36;2.53;;;1.20;;
49858;SDS011;35756;52.346;13.622;2023-07-13T14:52:08;3.80;;;1.42;;
49858;SDS011;35756;52.346;13.622;2023-07-13T14:54:36;3.72;;;1.73;;
49858;SDS011;35756;52.346;13.622;2023-07-13T14:57:07;2.75;;;1.55;;
49858;SDS011;35756;52.346;13.622;2023-07-13T14:59:34;3.78;;;1.50;;
49858;SDS011;35756;52.346;13.622;2023-07-13T15:01:59;4.10;;;1.73;;
49858;SDS011;35756;52.346;13.622;2023-07-13T15:04:25;3.00;;;1.52;;
49858;SDS011;35756;52.346;13.622;2023-07-13T15:09:27;2.25;;;1.30;;
49858;SDS011;35756;52.346;13.622;2023-07-13T15:11:57;5.07;;;1.58;;
49858;SDS011;35756;52.346;13.622;2023-07-13T15:14:22;3.83;;;1.60;;